Time;durP1;ratioP1;P1;durP2;ratioP2;P2;SDS_P1;SDS_P2;PMS_P1;PMS_P2;Temp;Humidity;BMP_temperature;BMP_pressure;BME280_temperature;BME280_humidity;BME280_pressure;Samples;Min_cycle;Max_cycle;Signal;HPM_P1;HPM_P2
2023/10/14 00:01:31;;;;;;;9.75;1.50;;;;;;;21.09;71.69;100289.66;4982619;28;20042;-68
2023/10/14 00:04:01;;;;;;;8.60;1.70;;;;;;;21.13;72.94;100313.69;5011347;28;20525;-68
2023/10/14 00:06:29;;;;;;;5.50;1.13;;;;;;;21.13;72.61;100296.09;4981485;28;20058;-68
2023/10/14 00:11:35;;;;;;;8.77;1.60;;;;;;;21.42;71.99;100317.38;5015413;28;20045;-69
2023/10/14 00:14:16;;;;;;;7.05;1.45;;;;;;;21.27;72.81;100324.94;5015141;28;20054;-69
2023/10/14 00:16:51;;;;;;;5.82;1.05;;;;;;;20.71;74.55;100330.22;5022541;28;20053;-68
2023/10/14 00:19:21;;;;;;;5.32;0.75;;;;;;;20.67;77.07;100332.22;5003468;28;20049;-70
2023/10/14 00:21:50;;;;;;;8.43;1.08;;;;;;;20.46;79.86;100326.47;5018259;28;20061;-70
2023/10/14 00:24:27;;;;;;;7.72;1.60;;;;;;;20.94;77.31;100343.94;5015725;28;20042;-69
2023/10/14 00:26:57;;;;;;;5.85;1.23;;;;;;;21.34;75.24;100354.97;5015371;28;20057;-69
2023/10/14 00:29:29;;;;;;;6.95;1.52;;;;;;;20.82;77.29;100356.28;5014589;28;20037;-70
2023/10/14 00:31:58;;;;;;;7.72;1.35;;;;;;;21.00;77.24;100364.81;4972873;28;20134;-69
2023/10/14 00:34:29;;;;;;;5.78;0.90;;;;;;;20.92;77.80;100360.38;5015321;28;20414;-70
2023/10/14 00:36:57;;;;;;;5.65;1.20;;;;;;;21.25;76.40;100365.75;4983237;28;20556;-70
2023/10/14 00:39:30;;;;;;;5.03;0.73;;;;;;;20.75;78.10;100363.84;4997230;28;20516;-69
2023/10/14 00:41:58;;;;;;;8.13;1.23;;;;;;;20.91;78.06;100378.34;4981610;28;20057;-69
2023/10/14 00:44:26;;;;;;;4.97;0.93;;;;;;;21.15;77.24;100377.69;5014532;28;20065;-69
2023/10/14 00:46:55;;;;;;;5.18;0.98;;;;;;;21.33;76.56;100389.00;5014907;28;20054;-69
2023/10/14 00:49:31;;;;;;;4.78;1.08;;;;;;;20.40;81.77;100408.38;4981031;28;20049;-70
2023/10/14 00:52:06;;;;;;;7.63;1.10;;;;;;;18.96;92.96;100436.16;4996764;28;20054;-71
2023/10/14 00:55:12;;;;;;;5.40;0.70;;;;;;;18.45;95.74;100442.47;5013551;28;20053;-68
2023/10/14 00:57:38;;;;;;;4.72;0.85;;;;;;;18.25;99.87;100454.88;5014677;28;20046;-70
2023/10/14 01:00:10;;;;;;;5.25;1.05;;;;;;;18.00;100.00;100454.41;5014956;28;20050;-68
2023/10/14 01:02:38;;;;;;;4.40;0.88;;;;;;;18.04;100.00;100458.06;4999327;28;20053;-69
2023/10/14 01:05:14;;;;;;;3.45;0.80;;;;;;;18.10;100.00;100458.56;5010428;28;20054;-69
2023/10/14 01:07:42;;;;;;;6.13;1.05;;;;;;;17.71;100.00;100471.75;4997450;28;20065;-70
2023/10/14 01:10:12;;;;;;;4.85;0.95;;;;;;;17.48;100.00;100465.28;5014727;28;20726;-69
2023/10/14 01:12:44;;;;;;;5.05;1.08;;;;;;;17.44;100.00;100470.75;5014488;28;20049;-70
2023/10/14 01:15:20;;;;;;;4.03;0.90;;;;;;;17.72;100.00;100488.09;5014834;28;20050;-69
2023/10/14 01:17:53;;;;;;;9.98;1.10;;;;;;;17.43;100.00;100485.84;4997622;28;20049;-71
2023/10/14 01:22:57;;;;;;;6.80;1.30;;;;;;;17.12;100.00;100504.63;5020458;28;20057;-64
2023/10/14 01:25:32;;;;;;;5.15;1.45;;;;;;;16.97;100.00;100511.81;5011010;28;20042;-70
2023/10/14 01:28:08;;;;;;;5.68;1.42;;;;;;;16.81;100.00;100516.56;5014511;28;20409;-69
2023/10/14 01:30:52;;;;;;;8.18;1.27;;;;;;;16.88;100.00;100518.75;4965782;28;20616;-69
2023/10/14 01:33:24;;;;;;;7.32;1.10;;;;;;;16.75;100.00;100529.16;4997302;28;20441;-63
2023/10/14 01:35:52;;;;;;;6.22;1.30;;;;;;;17.20;100.00;100535.03;5000207;28;20061;-63
2023/10/14 01:38:23;;;;;;;7.45;1.70;;;;;;;16.99;100.00;100531.75;4996474;28;20453;-62
2023/10/14 01:40:52;;;;;;;6.20;1.30;;;;;;;16.88;100.00;100534.25;4980688;28;20509;-63
2023/10/14 01:43:24;;;;;;;6.40;1.55;;;;;;;17.03;100.00;100552.13;4979194;28;20066;-62
2023/10/14 01:48:25;;;;;;;10.13;1.42;;;;;;;16.39;100.00;100554.38;5028525;28;20057;-62
2023/10/14 01:50:57;;;;;;;6.55;1.40;;;;;;;16.76;100.00;100572.47;5028467;28;20042;-62
2023/10/14 01:53:34;;;;;;;7.72;1.60;;;;;;;16.88;100.00;100603.81;5013382;28;20053;-62
2023/10/14 01:56:02;;;;;;;10.25;1.60;;;;;;;16.86;95.73;100577.50;4980897;28;20053;-63
2023/10/14 01:58:32;;;;;;;9.07;1.35;;;;;;;16.62;99.49;100605.47;5014215;28;20464;-61
2023/10/14 02:03:44;;;;;;;8.90;1.42;;;;;;;16.22;95.56;100629.72;5013569;28;20060;-62
2023/10/14 02:08:55;;;;;;;8.40;1.70;;;;;;;15.69;94.97;100644.81;5009551;28;20413;-63
2023/10/14 02:11:32;;;;;;;14.82;2.20;;;;;;;15.61;94.20;100652.09;4995900;28;20046;-63
2023/10/14 02:14:06;;;;;;;12.25;1.77;;;;;;;15.57;94.25;100653.97;5007537;28;20050;-62
2023/10/14 02:16:42;;;;;;;12.55;1.60;;;;;;;15.35;94.21;100662.72;5002048;28;20057;-62
2023/10/14 02:19:36;;;;;;;9.07;1.77;;;;;;;15.48;98.92;100674.69;5011902;28;20550;-62
2023/10/14 02:22:11;;;;;;;12.35;2.53;;;;;;;14.89;87.69;100692.84;4991063;28;20607;-62
2023/10/14 02:24:40;;;;;;;12.18;2.40;;;;;;;14.51;89.19;100677.22;5013588;28;20068;-63
2023/10/14 02:27:11;;;;;;;15.27;1.92;;;;;;;14.58;88.66;100673.88;4964984;28;20679;-62
2023/10/14 02:29:43;;;;;;;17.75;2.20;;;;;;;14.41;85.83;100699.81;5013445;28;20506;-62
2023/10/14 02:32:12;;;;;;;12.57;2.10;;;;;;;14.35;84.36;100692.03;5010151;28;20061;-62
2023/10/14 02:34:40;;;;;;;15.07;2.85;;;;;;;14.47;84.27;100692.91;5014092;28;20540;-62
2023/10/14 02:37:10;;;;;;;15.00;2.65;;;;;;;14.68;86.40;100697.63;5013654;28;20061;-62
2023/10/14 02:39:38;;;;;;;11.35;2.40;;;;;;;14.77;85.85;100687.25;4996755;28;20054;-63
2023/10/14 02:44:44;;;;;;;23.27;2.40;;;;;;;14.82;80.78;100709.22;4997981;28;20412;-62
2023/10/14 02:47:12;;;;;;;18.60;3.58;;;;;;;14.49;80.78;100701.69;4974726;28;20059;-62
2023/10/14 02:49:41;;;;;;;16.50;3.23;;;;;;;14.31;82.11;100711.28;4989719;28;20552;-62
2023/10/14 02:52:12;;;;;;;18.10;2.50;;;;;;;14.22;80.79;100704.19;4976935;28;20312;-62
2023/10/14 02:54:45;;;;;;;17.25;2.95;;;;;;;14.18;83.86;100720.66;4996554;28;20057;-63
2023/10/14 02:57:13;;;;;;;19.15;3.00;;;;;;;13.90;80.30;100725.09;4997341;28;20046;-62
2023/10/14 03:04:54;;;;;;;13.43;1.75;;;;;;;14.16;83.93;100728.50;4970178;28;20078;-62
2023/10/14 03:10:18;;;;;;;14.77;2.78;;;;;;;15.36;80.90;100742.06;4997533;28;20632;-62
2023/10/14 03:12:49;;;;;;;16.80;2.85;;;;;;;14.16;81.11;100742.34;4995646;28;20061;-62
2023/10/14 03:15:19;;;;;;;17.95;2.50;;;;;;;14.41;82.57;100749.69;4990527;28;20050;-62
2023/10/14 03:17:58;;;;;;;16.77;2.10;;;;;;;15.13;82.62;100762.25;5003789;28;20675;-62
2023/10/14 03:20:36;;;;;;;15.27;2.93;;;;;;;14.74;84.24;100769.16;4982881;28;20521;-62
2023/10/14 03:25:41;;;;;;;12.90;2.65;;;;;;;14.34;81.91;100765.22;4996915;28;20057;-63
2023/10/14 03:28:15;;;;;;;11.73;2.30;;;;;;;14.73;82.03;100762.00;4996852;28;20055;-64
2023/10/14 03:30:44;;;;;;;16.10;2.47;;;;;;;14.20;81.57;100778.50;4980596;28;20042;-62
2023/10/14 03:33:14;;;;;;;15.95;2.92;;;;;;;14.00;84.52;100784.84;4979774;28;20053;-62
2023/10/14 03:35:43;;;;;;;15.77;2.85;;;;;;;14.59;90.24;100791.97;4995852;28;20513;-62
2023/10/14 03:38:25;;;;;;;22.45;3.08;;;;;;;14.28;81.81;100788.72;4996430;28;20413;-61
2023/10/14 03:41:42;;;;;;;16.50;2.88;;;;;;;14.31;81.84;100786.09;4996644;28;20038;-62
2023/10/14 03:43:48;;;;;;;15.15;3.08;;;;;;;14.01;84.78;100797.53;4996072;28;20516;-62
2023/10/14 03:46:16;;;;;;;14.48;2.90;;;;;;;14.30;88.85;100792.81;5031202;28;20417;-70
2023/10/14 03:48:47;;;;;;;13.82;2.65;;;;;;;14.26;82.66;100804.91;5013449;28;20489;-69
2023/10/14 03:51:24;;;;;;;16.80;2.55;;;;;;;13.98;83.36;100798.19;5016007;28;20046;-69
2023/10/14 03:53:52;;;;;;;20.05;3.03;;;;;;;14.41;87.30;100807.91;5015699;28;20429;-70
2023/10/14 03:56:27;;;;;;;20.35;2.78;;;;;;;14.01;80.39;100814.13;5016296;28;20085;-69
2023/10/14 03:58:57;;;;;;;11.80;2.35;;;;;;;14.16;81.09;100817.16;5011865;28;20069;-70
2023/10/14 04:01:45;;;;;;;15.38;2.72;;;;;;;13.83;82.24;100824.47;5017605;28;20485;-71
2023/10/14 04:04:20;;;;;;;12.68;2.40;;;;;;;14.19;84.30;100826.75;4965977;28;20057;-69
2023/10/14 04:09:37;;;;;;;17.30;3.22;;;;;;;13.53;82.55;100837.44;5000655;28;20054;-69
2023/10/14 04:12:09;;;;;;;14.52;2.50;;;;;;;13.40;85.41;100841.25;5014068;28;20613;-69
2023/10/14 04:14:37;;;;;;;13.15;2.80;;;;;;;13.85;81.93;100840.75;5015726;28;20045;-62
2023/10/14 04:17:30;;;;;;;17.17;3.17;;;;;;;13.80;81.54;100846.47;5010051;28;20053;-62
2023/10/14 04:20:20;;;;;;;14.82;3.50;;;;;;;13.33;83.73;100851.19;5015741;28;20057;-69
2023/10/14 04:22:46;;;;;;;18.23;2.90;;;;;;;13.86;83.69;100854.25;4986442;28;20057;-69
2023/10/14 04:25:19;;;;;;;14.63;2.80;;;;;;;13.41;81.08;100858.63;4997850;28;20045;-69
2023/10/14 04:35:36;;;;;;;21.00;2.75;;;;;;;13.54;81.65;100861.25;4995745;28;20058;-69
2023/10/14 04:38:17;;;;;;;19.73;2.60;;;;;;;13.37;81.54;100869.56;4994506;28;20061;-69
2023/10/14 04:40:53;;;;;;;23.35;3.70;;;;;;;13.61;80.84;100869.03;4980844;28;20058;-70
2023/10/14 04:45:55;;;;;;;13.23;2.92;;;;;;;13.92;78.87;100871.50;5024978;28;20053;-70
2023/10/14 04:48:35;;;;;;;13.95;3.33;;;;;;;14.06;82.23;100883.19;5030932;28;20073;-69
2023/10/14 04:51:07;;;;;;;12.45;2.65;;;;;;;14.70;80.18;100872.75;5015311;28;20081;-69
2023/10/14 04:53:36;;;;;;;14.93;3.03;;;;;;;13.68;78.60;100876.81;5015240;28;20058;-70
2023/10/14 04:56:04;;;;;;;17.70;3.42;;;;;;;13.41;78.38;100876.06;5015275;28;20050;-70
2023/10/14 04:58:34;;;;;;;12.85;2.85;;;;;;;13.60;80.92;100881.22;5021597;28;20066;-70
2023/10/14 05:01:03;;;;;;;;;;;;;;;13.39;79.21;100892.19;5010759;28;20627;-70
2023/10/14 05:03:33;;;;;;;14.65;2.58;;;;;;;13.35;79.80;100890.41;4994011;28;20419;-70
2023/10/14 05:08:51;;;;;;;15.52;2.95;;;;;;;13.16;79.50;100892.69;4993677;28;20058;-69
2023/10/14 05:11:18;;;;;;;17.27;2.80;;;;;;;12.77;81.33;100898.34;5011928;28;20068;-70
2023/10/14 05:13:53;;;;;;;19.17;3.20;;;;;;;13.19;85.08;100895.63;4996181;28;20045;-68
2023/10/14 05:16:21;;;;;;;17.90;2.80;;;;;;;13.69;86.31;100895.84;5018920;28;20052;-69
2023/10/14 05:19:06;;;;;;;15.35;2.78;;;;;;;13.68;82.60;100904.50;5029649;28;20054;-69
2023/10/14 05:21:42;;;;;;;17.70;3.00;;;;;;;14.38;84.08;100901.97;4996728;28;20057;-70
2023/10/14 05:24:11;;;;;;;17.48;3.40;;;;;;;14.33;74.38;100907.72;5014267;28;20064;-69
2023/10/14 05:26:58;;;;;;;15.05;2.65;;;;;;;15.54;80.06;100909.25;5014558;28;20053;-69
2023/10/14 05:29:27;;;;;;;12.27;2.67;;;;;;;15.22;79.15;100908.06;4986274;28;20061;-69
2023/10/14 05:32:10;;;;;;;15.02;3.03;;;;;;;14.70;75.84;100917.91;5014110;28;20525;-69
2023/10/14 05:34:39;;;;;;;15.20;2.67;;;;;;;14.31;78.04;100926.63;5014359;28;20042;-69
2023/10/14 05:37:12;;;;;;;18.45;2.78;;;;;;;15.35;78.17;100917.25;5013653;28;20417;-69
2023/10/14 05:39:40;;;;;;;18.63;2.92;;;;;;;14.40;73.41;100930.19;4995674;28;20065;-68
2023/10/14 05:42:20;;;;;;;11.98;2.40;;;;;;;14.21;75.61;100932.53;4996429;28;20061;-68
2023/10/14 05:44:57;;;;;;;22.15;3.30;;;;;;;13.63;77.67;100940.66;4988635;28;20053;-69
2023/10/14 05:47:32;;;;;;;17.15;2.83;;;;;;;14.69;80.66;100932.94;4998759;28;20057;-64
2023/10/14 05:49:59;;;;;;;20.25;3.10;;;;;;;15.32;77.21;100934.59;5010116;28;20061;-62
2023/10/14 05:52:27;;;;;;;17.40;2.95;;;;;;;14.62;77.41;100938.19;4996911;28;20496;-62
2023/10/14 05:54:55;;;;;;;15.63;3.45;;;;;;;15.22;74.38;100946.13;5013833;28;20054;-62
2023/10/14 05:57:23;;;;;;;14.38;3.22;;;;;;;15.73;76.15;100951.22;4994448;28;20417;-63
2023/10/14 05:59:50;;;;;;;12.95;3.13;;;;;;;16.34;72.75;100949.38;4992159;28;20046;-63
2023/10/14 06:02:19;;;;;;;15.48;3.28;;;;;;;16.71;71.11;100949.06;5008507;28;20050;-69
2023/10/14 06:04:50;;;;;;;18.67;3.35;;;;;;;17.11;68.79;100959.44;5012676;28;20041;-70
2023/10/14 06:07:21;;;;;;;15.95;2.97;;;;;;;16.55;68.46;100964.84;5014306;28;20057;-70
2023/10/14 06:09:48;;;;;;;15.90;3.50;;;;;;;15.78;69.79;100959.31;5029048;28;20053;-70
2023/10/14 06:12:16;;;;;;;15.32;3.05;;;;;;;16.30;67.61;100971.50;5012301;28;20050;-70
2023/10/14 06:14:46;;;;;;;15.55;2.80;;;;;;;15.57;67.21;100972.44;5008772;28;20050;-70
2023/10/14 06:17:14;;;;;;;16.25;3.20;;;;;;;15.51;67.40;100980.19;5025540;28;20053;-69
2023/10/14 06:19:42;;;;;;;20.52;3.38;;;;;;;15.44;73.54;100982.69;5015851;28;20093;-70
2023/10/14 06:22:13;;;;;;;13.55;3.13;;;;;;;15.70;68.11;100991.59;5012509;28;20065;-70
2023/10/14 06:24:42;;;;;;;12.50;3.10;;;;;;;15.56;73.23;100993.84;5012515;28;20104;-69
2023/10/14 06:27:20;;;;;;;16.05;2.75;;;;;;;15.60;73.33;100992.00;5012674;28;20536;-70
2023/10/14 06:29:49;;;;;;;13.30;2.67;;;;;;;15.90;71.66;101006.59;4982432;28;20050;-70
2023/10/14 06:32:16;;;;;;;14.82;3.13;;;;;;;14.69;72.92;101010.56;5016105;28;20501;-69
2023/10/14 06:34:57;;;;;;;15.55;2.70;;;;;;;15.06;72.33;101022.78;5015449;28;20058;-70
2023/10/14 06:37:26;;;;;;;23.75;3.22;;;;;;;14.35;70.70;101021.78;5017882;28;20061;-70
2023/10/14 06:39:56;;;;;;;13.52;2.70;;;;;;;13.72;74.36;101033.59;4999840;28;20046;-71
2023/10/14 06:42:26;;;;;;;17.27;3.25;;;;;;;13.52;73.07;101034.28;5016586;28;20093;-70
2023/10/14 06:44:53;;;;;;;18.07;2.87;;;;;;;13.56;74.40;101036.06;5005735;28;20057;-71
2023/10/14 06:47:22;;;;;;;14.00;2.15;;;;;;;14.06;76.86;101028.03;5022503;28;20405;-71
2023/10/14 06:49:50;;;;;;;13.70;2.10;;;;;;;13.65;74.45;101044.34;4999191;28;20061;-69
2023/10/14 06:52:18;;;;;;;15.50;3.65;;;;;;;13.59;75.22;101042.91;5017233;28;20057;-69
2023/10/14 06:54:46;;;;;;;15.70;2.55;;;;;;;14.72;77.99;101045.94;5032148;28;20054;-70
2023/10/14 06:57:16;;;;;;;16.67;2.80;;;;;;;14.77;75.61;101054.09;5017114;28;20509;-71
2023/10/14 06:59:45;;;;;;;21.60;3.22;;;;;;;14.15;70.91;101056.53;5002512;28;20057;-70
2023/10/14 07:02:12;;;;;;;9.57;2.77;;;;;;;15.16;75.35;101052.91;5023380;28;20053;-70
2023/10/14 07:04:40;;;;;;;16.30;2.97;;;;;;;16.00;70.64;101058.97;5013527;28;20300;-69
2023/10/14 07:07:09;;;;;;;15.20;3.10;;;;;;;16.67;68.11;101069.72;5016183;28;20710;-70
2023/10/14 07:09:39;;;;;;;17.92;3.47;;;;;;;17.11;66.27;101063.25;5015993;28;20045;-71
2023/10/14 07:12:15;;;;;;;16.80;3.47;;;;;;;17.56;65.41;101063.09;4998106;28;20072;-70
2023/10/14 07:14:45;;;;;;;15.20;2.85;;;;;;;16.96;64.66;101072.31;5016812;28;20061;-70
2023/10/14 07:17:17;;;;;;;11.77;2.72;;;;;;;17.07;65.03;101081.81;5027508;28;20060;-70
2023/10/14 07:19:46;;;;;;;13.10;2.95;;;;;;;17.40;64.97;101088.03;5013858;28;20049;-71
2023/10/14 07:22:20;;;;;;;11.93;2.67;;;;;;;17.69;63.87;101101.75;5014351;28;20061;-70
2023/10/14 07:24:49;;;;;;;14.48;2.53;;;;;;;17.57;64.91;101098.16;5015556;28;20121;-70
2023/10/14 07:27:18;;;;;;;19.48;3.08;;;;;;;17.75;63.29;101100.31;4996297;28;20045;-71
2023/10/14 07:29:45;;;;;;;12.95;3.38;;;;;;;17.63;64.01;101103.13;5011308;28;20046;-70
2023/10/14 07:32:15;;;;;;;16.05;3.72;;;;;;;17.57;65.20;101112.88;4997662;28;20046;-72
2023/10/14 07:34:42;;;;;;;12.53;2.77;;;;;;;17.79;64.91;101106.00;4985177;28;20054;-70
2023/10/14 07:37:10;;;;;;;13.35;3.15;;;;;;;18.09;63.36;101098.13;5016292;28;20050;-70
2023/10/14 07:39:38;;;;;;;14.55;3.05;;;;;;;18.37;63.66;101110.91;5016822;28;20079;-70
2023/10/14 07:42:13;;;;;;;13.98;3.05;;;;;;;18.54;63.44;101104.19;4998422;28;20045;-71
2023/10/14 07:44:41;;;;;;;14.80;2.78;;;;;;;18.21;61.80;101117.59;5002445;28;20056;-71
2023/10/14 07:47:10;;;;;;;19.75;3.50;;;;;;;18.18;67.46;101121.09;5036742;28;20060;-71
2023/10/14 07:49:38;;;;;;;;;;;;;;;17.13;66.98;101124.13;5003632;28;20050;-71
2023/10/14 07:52:14;;;;;;;20.60;3.65;;;;;;;16.61;74.22;101124.78;5016334;28;19925;-71
2023/10/14 07:54:42;;;;;;;20.13;3.88;;;;;;;17.65;85.30;101125.06;5015000;28;20073;-72
2023/10/14 07:57:12;;;;;;;19.50;3.95;;;;;;;18.14;79.84;101118.19;4998848;28;20057;-71
2023/10/14 07:59:41;;;;;;;20.77;3.07;;;;;;;18.14;79.89;101140.50;5011340;28;20061;-70
2023/10/14 08:02:10;;;;;;;15.10;3.53;;;;;;;18.60;76.94;101139.84;5033079;28;20065;-71
2023/10/14 08:04:37;;;;;;;18.87;3.30;;;;;;;18.81;69.69;101142.44;5003172;28;20037;-69
2023/10/14 08:07:06;;;;;;;17.23;3.53;;;;;;;18.64;67.43;101145.53;5014711;28;20049;-73
2023/10/14 08:09:39;;;;;;;19.38;3.65;;;;;;;19.12;67.59;101136.84;5010490;28;20736;-70
2023/10/14 08:12:06;;;;;;;18.42;3.55;;;;;;;19.30;61.80;101140.09;5005174;28;20049;-69
2023/10/14 08:14:33;;;;;;;12.40;2.72;;;;;;;19.18;61.11;101146.56;5000843;28;20049;-71
2023/10/14 08:17:00;;;;;;;16.98;2.90;;;;;;;19.09;58.69;101143.97;5028270;28;20052;-69
2023/10/14 08:19:28;;;;;;;13.50;3.03;;;;;;;19.76;56.18;101142.84;5016102;28;20053;-69
2023/10/14 08:21:55;;;;;;;11.68;2.97;;;;;;;19.79;55.50;101153.28;5013953;28;20054;-70
2023/10/14 08:24:23;;;;;;;15.25;3.72;;;;;;;19.38;54.79;101158.69;5014456;28;20054;-70
2023/10/14 08:26:50;;;;;;;14.35;2.63;;;;;;;18.65;57.36;101161.13;5016458;28;20056;-71
2023/10/14 08:29:20;;;;;;;18.05;2.75;;;;;;;19.53;53.53;101155.84;5024635;28;20048;-70
2023/10/14 08:31:53;;;;;;;15.00;2.78;;;;;;;19.56;53.04;101157.13;5015650;28;20061;-75
2023/10/14 08:34:23;;;;;;;11.27;2.22;;;;;;;19.26;52.92;101165.16;4995883;28;20053;-74
2023/10/14 08:36:51;;;;;;;13.43;2.95;;;;;;;19.37;50.97;101163.44;4996877;28;20050;-74
2023/10/14 08:39:23;;;;;;;13.65;2.72;;;;;;;19.10;53.85;101161.53;4995502;28;20056;-74
2023/10/14 08:41:54;;;;;;;10.35;2.00;;;;;;;20.04;54.38;101163.03;5013420;28;20054;-74
2023/10/14 08:44:26;;;;;;;15.45;2.85;;;;;;;19.64;52.36;101158.91;4997396;28;20509;-72
2023/10/14 08:46:53;;;;;;;17.10;3.13;;;;;;;18.94;53.81;101153.16;4997893;28;20053;-75
2023/10/14 08:49:25;;;;;;;8.80;2.00;;;;;;;19.74;52.42;101158.34;4997412;28;20400;-73
2023/10/14 08:51:53;;;;;;;11.95;2.20;;;;;;;19.46;49.01;101174.44;4979298;28;20593;-72
2023/10/14 08:54:24;;;;;;;11.73;2.58;;;;;;;18.65;49.94;101175.06;5013091;28;20062;-72
2023/10/14 08:56:52;;;;;;;8.80;1.98;;;;;;;18.52;51.13;101193.84;5014550;28;20050;-77
2023/10/14 08:59:21;;;;;;;7.85;2.00;;;;;;;19.38;49.10;101183.81;4993659;28;20049;-74
2023/10/14 09:01:54;;;;;;;11.30;2.33;;;;;;;18.87;49.91;101196.81;5019414;28;20512;-71
2023/10/14 09:04:29;;;;;;;10.98;2.65;;;;;;;18.67;51.07;101187.50;4998157;28;20041;-69
2023/10/14 09:07:10;;;;;;;12.95;2.35;;;;;;;17.13;52.81;101197.34;5013600;28;20049;-64
2023/10/14 09:09:37;;;;;;;12.32;2.70;;;;;;;15.82;58.10;101193.63;4964322;28;20050;-64
2023/10/14 09:12:11;;;;;;;94.32;50.60;;;;;;;17.05;59.57;101189.09;5014789;28;20100;-67
2023/10/14 09:14:41;;;;;;;30.50;12.75;;;;;;;17.87;56.85;101192.25;4996402;28;20042;-67
2023/10/14 09:17:09;;;;;;;23.40;8.13;;;;;;;17.73;55.05;101191.81;5013863;28;20056;-67
2023/10/14 09:19:48;;;;;;;14.97;4.10;;;;;;;17.27;53.83;101203.38;5013940;28;20057;-66
2023/10/14 09:22:27;;;;;;;13.77;3.08;;;;;;;16.99;57.64;101198.81;5007977;28;20057;-68
2023/10/14 09:24:58;;;;;;;18.35;3.88;;;;;;;17.47;56.64;101201.69;5006316;28;20044;-67
2023/10/14 09:27:30;;;;;;;14.48;3.20;;;;;;;17.48;55.10;101206.91;5008335;28;20505;-66
2023/10/14 09:29:58;;;;;;;12.10;3.05;;;;;;;18.01;55.42;101202.22;5013813;28;20050;-67
2023/10/14 09:32:25;;;;;;;14.52;2.92;;;;;;;17.51;53.61;101203.44;5014187;28;20049;-65
2023/10/14 09:34:55;;;;;;;12.35;2.33;;;;;;;17.39;54.59;101217.31;4994926;28;20053;-67
2023/10/14 09:37:23;;;;;;;10.03;2.47;;;;;;;16.52;56.30;101218.59;4996127;28;20037;-67
2023/10/14 09:39:57;;;;;;;16.08;3.10;;;;;;;16.08;58.15;101224.81;5012097;28;20301;-66
2023/10/14 09:42:30;;;;;;;12.57;3.28;;;;;;;16.04;61.74;101218.28;5012051;28;20064;-66
2023/10/14 09:45:09;;;;;;;13.85;2.72;;;;;;;16.24;57.96;101223.06;5011022;28;20050;-66
2023/10/14 09:47:40;;;;;;;12.98;2.38;;;;;;;17.05;59.69;101222.50;4981955;28;20056;-66
2023/10/14 09:50:13;;;;;;;13.10;2.58;;;;;;;16.55;58.50;101222.66;4998257;28;20046;-67
2023/10/14 09:52:47;;;;;;;13.00;2.72;;;;;;;16.70;57.33;101224.81;5013696;28;20057;-68
2023/10/14 09:55:15;;;;;;;13.55;3.67;;;;;;;17.03;60.67;101224.81;5014046;28;20054;-69
2023/10/14 09:57:47;;;;;;;12.88;3.10;;;;;;;16.99;59.49;101221.06;5013478;28;20070;-67
2023/10/14 10:00:17;;;;;;;14.82;3.33;;;;;;;17.96;58.73;101223.59;5028159;28;20612;-68
2023/10/14 10:02:48;;;;;;;15.68;2.90;;;;;;;18.01;56.05;101225.31;4990484;28;20105;-70
2023/10/14 10:05:23;;;;;;;11.52;2.63;;;;;;;17.13;56.27;101224.34;5005966;28;20037;-68
2023/10/14 10:08:17;;;;;;;13.13;3.20;;;;;;;17.49;56.76;101232.78;5025582;28;20046;-69
2023/10/14 10:10:47;;;;;;;12.15;2.30;;;;;;;17.38;58.44;101239.94;5009790;28;20045;-69
2023/10/14 10:13:16;;;;;;;10.25;2.35;;;;;;;17.39;58.38;101238.78;5011477;28;20053;-70
2023/10/14 10:15:47;;;;;;;12.18;2.92;;;;;;;17.43;59.80;101246.13;5012378;28;20050;-67
2023/10/14 10:18:16;;;;;;;20.90;2.97;;;;;;;18.01;55.40;101250.41;5010545;28;20045;-68
2023/10/14 10:20:56;;;;;;;13.48;3.20;;;;;;;17.56;58.44;101250.56;4975108;28;20065;-69
2023/10/14 10:23:29;;;;;;;;;;;;;;;18.49;56.75;101250.34;4993342;28;20545;-69
2023/10/14 10:25:59;;;;;;;12.95;2.83;;;;;;;17.47;53.82;101260.19;5012090;28;20377;-69
2023/10/14 10:28:26;;;;;;;13.32;2.53;;;;;;;16.47;57.78;101254.97;5011422;28;20077;-68
2023/10/14 10:30:57;;;;;;;13.40;2.90;;;;;;;16.80;59.92;101268.91;5012382;28;20049;-69
2023/10/14 10:33:52;;;;;;;14.18;2.88;;;;;;;16.43;54.12;101267.06;5012479;28;20050;-70
2023/10/14 10:36:22;;;;;;;9.57;2.20;;;;;;;15.98;57.69;101266.91;5013479;28;20045;-67
2023/10/14 10:38:53;;;;;;;12.30;1.92;;;;;;;16.40;58.40;101268.56;5013828;28;20080;-70
2023/10/14 10:41:25;;;;;;;11.93;2.63;;;;;;;15.85;58.92;101273.50;4994893;28;20045;-69
2023/10/14 10:44:03;;;;;;;14.00;2.60;;;;;;;15.29;61.65;101285.78;5011802;28;20613;-68
2023/10/14 10:46:44;;;;;;;9.00;2.10;;;;;;;14.77;61.66;101292.56;5009851;28;20154;-69
2023/10/14 10:49:14;;;;;;;12.40;1.90;;;;;;;14.83;63.13;101280.19;5023044;28;20608;-68
2023/10/14 10:52:00;;;;;;;11.07;2.07;;;;;;;15.79;61.76;101297.06;4988299;28;20053;-66
2023/10/14 10:54:30;;;;;;;12.35;2.25;;;;;;;14.74;64.71;101304.31;5013929;28;20288;-66
2023/10/14 10:57:00;;;;;;;12.68;2.53;;;;;;;14.36;66.73;101297.78;4987199;28;20038;-66
2023/10/14 10:59:36;;;;;;;18.73;2.75;;;;;;;14.57;69.86;101296.81;5009357;28;20050;-68
2023/10/14 11:02:11;;;;;;;13.63;2.35;;;;;;;14.99;69.75;101292.41;4988084;28;20072;-69
2023/10/14 11:04:39;;;;;;;12.27;2.50;;;;;;;15.70;66.46;101297.13;5009518;28;20041;-69
2023/10/14 11:07:14;;;;;;;15.25;3.00;;;;;;;14.60;70.37;101312.00;5011847;28;20053;-67
2023/10/14 11:09:41;;;;;;;15.23;2.20;;;;;;;14.27;72.24;101313.59;5008844;28;20052;-69
2023/10/14 11:12:10;;;;;;;15.90;2.17;;;;;;;13.90;73.79;101314.09;4992811;28;20133;-69
2023/10/14 11:14:38;;;;;;;11.07;2.43;;;;;;;14.51;76.28;101306.44;5013099;28;20050;-68
2023/10/14 11:17:06;;;;;;;11.98;2.63;;;;;;;14.50;74.13;101312.31;5001007;28;20065;-69
2023/10/14 11:19:34;;;;;;;14.30;2.63;;;;;;;14.86;74.48;101315.56;5000379;28;20050;-69
2023/10/14 11:22:02;;;;;;;11.18;2.30;;;;;;;14.53;72.41;101319.97;4980726;28;20053;-69
2023/10/14 11:24:31;;;;;;;13.18;2.75;;;;;;;14.52;73.93;101327.47;5014574;28;20049;-68
2023/10/14 11:27:01;;;;;;;11.52;2.30;;;;;;;14.48;73.10;101329.28;5013227;28;20042;-70
2023/10/14 11:29:33;;;;;;;11.50;2.33;;;;;;;14.19;71.52;101317.94;5014119;28;20057;-69
2023/10/14 11:32:02;;;;;;;16.27;2.95;;;;;;;14.37;73.98;101324.34;5011579;28;20061;-67
2023/10/14 11:34:36;;;;;;;17.50;3.47;;;;;;;14.30;73.50;101335.09;5016489;28;20046;-59
2023/10/14 11:37:10;;;;;;;12.75;2.53;;;;;;;13.80;74.98;101329.06;4997116;28;20042;-68
2023/10/14 11:39:38;;;;;;;11.75;2.28;;;;;;;14.19;74.00;101328.22;5007484;28;20046;-69
2023/10/14 11:42:05;;;;;;;10.98;2.60;;;;;;;13.56;76.33;101332.22;4992199;28;20065;-68
2023/10/14 11:44:36;;;;;;;12.40;2.38;;;;;;;13.71;76.31;101333.75;5010816;28;20046;-69
2023/10/14 11:47:07;;;;;;;10.98;2.17;;;;;;;13.71;76.81;101338.47;5014948;28;20053;-66
2023/10/14 11:49:36;;;;;;;10.82;2.20;;;;;;;13.73;77.75;101344.50;5010008;28;20065;-67
2023/10/14 11:52:04;;;;;;;15.52;2.65;;;;;;;13.84;80.57;101338.38;5011503;28;20065;-67
2023/10/14 11:54:32;;;;;;;13.18;3.03;;;;;;;14.44;80.67;101333.00;5016736;28;20064;-69
2023/10/14 11:56:59;;;;;;;11.40;2.58;;;;;;;15.16;76.51;101322.06;4998898;28;20417;-67
2023/10/14 11:59:27;;;;;;;15.73;3.15;;;;;;;16.19;71.40;101311.38;5015124;28;20050;-67
2023/10/14 12:01:58;;;;;;;13.13;3.13;;;;;;;17.09;67.90;101304.13;5011072;28;20054;-68
2023/10/14 12:04:28;;;;;;;9.93;2.60;;;;;;;17.40;65.83;101310.06;5012481;28;20053;-67
2023/10/14 12:06:55;;;;;;;11.83;2.47;;;;;;;16.99;65.90;101305.38;4994375;28;20536;-68
2023/10/14 12:09:23;;;;;;;8.90;2.58;;;;;;;17.57;64.42;101302.31;5012189;28;20316;-67
2023/10/14 12:11:50;;;;;;;10.60;3.30;;;;;;;17.88;63.00;101305.38;5008118;28;20093;-67
2023/10/14 12:14:18;;;;;;;12.35;2.88;;;;;;;18.07;61.25;101301.19;5013663;28;20046;-67
2023/10/14 12:16:45;;;;;;;11.00;2.80;;;;;;;17.82;58.71;101305.94;5013982;28;20053;-67
2023/10/14 12:19:18;;;;;;;14.45;2.53;;;;;;;17.76;62.03;101310.94;5011642;28;20412;-67
2023/10/14 12:21:48;;;;;;;9.73;2.38;;;;;;;18.06;60.10;101305.97;4996574;28;20057;-68